Time,TemperatureF,DewpointF,PressureIn,WindDirection,WindDirectionDegrees,WindSpeedMPH,WindSpeedGustMPH,Humidity,HourlyPrecipIn,Conditions,Clouds,dailyrainin,SoftwareType,DateUTC
2013-10-31 00:11:00,62.7,62.0,29.75,SSW,209,2.0,5.0,96,0.02,,,0.02,weatherlink.com 1.10,2013-10-31 05:11:00,
2013-10-31 00:26:00,62.9,62.0,29.74,SSW,203,3.0,7.0,96,0.03,,,0.03,weatherlink.com 1.10,2013-10-31 05:26:00,
2013-10-31 00:41:00,63.0,62.0,29.73,SSW,199,1.0,5.0,96,0.02,,,0.03,weatherlink.com 1.10,2013-10-31 05:41:00,
2013-10-31 00:56:00,63.0,62.0,29.73,SSW,205,3.0,7.0,96,0.03,,,0.04,weatherlink.com 1.10,2013-10-31 05:56:00,
2013-10-31 01:12:00,63.1,62.0,29.72,SW,223,3.0,8.0,96,0.02,,,0.04,weatherlink.com 1.10,2013-10-31 06:12:00,
2013-10-31 01:27:00,63.2,62.0,29.71,SW,231,6.0,7.0,96,0.03,,,0.06,weatherlink.com 1.10,2013-10-31 06:27:00,
2013-10-31 01:42:00,63.3,62.0,29.71,WSW,252,6.0,9.0,96,0.04,,,0.07,weatherlink.com 1.10,2013-10-31 06:42:00,
2013-10-31 01:57:00,63.3,62.0,29.70,WSW,242,4.0,6.0,96,0.04,,,0.08,weatherlink.com 1.10,2013-10-31 06:57:00,
2013-10-31 02:12:00,63.2,62.0,29.69,SW,221,4.0,8.0,96,0.04,,,0.08,weatherlink.com 1.10,2013-10-31 07:12:00,
2013-10-31 02:27:00,63.2,62.0,29.69,SSW,209,2.0,6.0,96,0.03,,,0.09,weatherlink.com 1.10,2013-10-31 07:27:00,
2013-10-31 02:42:00,63.2,62.0,29.68,WSW,246,6.0,9.0,96,0.02,,,0.09,weatherlink.com 1.10,2013-10-31 07:42:00,
2013-10-31 02:57:00,63.0,62.0,29.67,SW,221,8.0,8.0,95,0.02,,,0.10,weatherlink.com 1.10,2013-10-31 07:57:00,
2013-10-31 03:12:00,63.0,62.0,29.65,SSE,158,5.0,9.0,95,0.02,,,0.10,weatherlink.com 1.10,2013-10-31 08:12:00,
2013-10-31 03:27:00,63.1,62.0,29.63,SSW,192,7.0,13.0,95,0.01,,,0.10,weatherlink.com 1.10,2013-10-31 08:27:00,
2013-10-31 03:42:00,63.1,62.0,29.61,WSW,240,4.0,11.0,95,0.01,,,0.10,weatherlink.com 1.10,2013-10-31 08:42:00,
2013-10-31 03:57:00,62.9,62.0,29.63,West,277,7.0,8.0,95,0.00,,,0.10,weatherlink.com 1.10,2013-10-31 08:57:00,
2013-10-31 04:13:00,62.9,62.0,29.62,West,265,3.0,12.0,95,0.00,,,0.10,weatherlink.com 1.10,2013-10-31 09:13:00,
2013-10-31 04:28:00,62.7,61.0,29.62,WSW,239,5.0,10.0,94,0.00,,,0.10,weatherlink.com 1.10,2013-10-31 09:28:00,
2013-10-31 04:43:00,62.7,61.0,29.62,West,275,2.0,11.0,94,0.00,,,0.10,weatherlink.com 1.10,2013-10-31 09:43:00,
2013-10-31 04:58:00,62.7,61.0,29.62,SSW,192,4.0,16.0,94,0.00,,,0.10,weatherlink.com 1.10,2013-10-31 09:58:00,
2013-10-31 05:13:00,62.7,61.0,29.62,West,265,8.0,11.0,93,0.00,,,0.10,weatherlink.com 1.10,2013-10-31 10:13:00,
2013-10-31 05:28:00,62.7,61.0,29.61,WNW,286,5.0,11.0,93,0.00,,,0.10,weatherlink.com 1.10,2013-10-31 10:28:00,
2013-10-31 05:43:00,62.7,61.0,29.61,WSW,257,10.0,12.0,93,0.00,,,0.10,weatherlink.com 1.10,2013-10-31 10:43:00,
2013-10-31 05:58:00,62.6,61.0,29.60,West,263,13.0,14.0,93,0.00,,,0.10,weatherlink.com 1.10,2013-10-31 10:58:00,
2013-10-31 06:13:00,62.5,61.0,29.60,West,267,7.0,12.0,93,0.00,,,0.10,weatherlink.com 1.10,2013-10-31 11:13:00,
2013-10-31 06:28:00,62.4,60.0,29.59,SW,214,0.0,10.0,93,0.00,,,0.10,weatherlink.com 1.10,2013-10-31 11:28:00,
2013-10-31 06:43:00,62.1,60.0,29.58,SW,217,3.0,8.0,93,0.00,,,0.10,weatherlink.com 1.10,2013-10-31 11:43:00,
2013-10-31 06:58:00,61.9,60.0,29.58,WSW,254,6.0,8.0,93,0.00,,,0.10,weatherlink.com 1.10,2013-10-31 11:58:00,
2013-10-31 07:13:00,61.8,60.0,29.58,WSW,256,8.0,13.0,93,0.00,,,0.10,weatherlink.com 1.10,2013-10-31 12:13:00,
2013-10-31 07:28:00,61.7,60.0,29.58,West,267,4.0,9.0,93,0.00,,,0.10,weatherlink.com 1.10,2013-10-31 12:28:00,
2013-10-31 07:44:00,61.6,60.0,29.58,WSW,246,2.0,7.0,93,0.01,,,0.11,weatherlink.com 1.10,2013-10-31 12:44:00,
2013-10-31 07:59:00,61.5,60.0,29.58,WSW,257,1.0,9.0,94,0.01,,,0.11,weatherlink.com 1.10,2013-10-31 12:59:00,
2013-10-31 08:14:00,61.4,60.0,29.57,WSW,253,3.0,8.0,94,0.01,,,0.11,weatherlink.com 1.10,2013-10-31 13:14:00,
2013-10-31 08:29:00,61.4,60.0,29.56,WSW,239,5.0,7.0,94,0.02,,,0.12,weatherlink.com 1.10,2013-10-31 13:29:00,
2013-10-31 08:44:00,61.4,60.0,29.56,SW,223,5.0,9.0,94,0.02,,,0.13,weatherlink.com 1.10,2013-10-31 13:44:00,
2013-10-31 08:59:00,61.5,60.0,29.55,SW,230,4.0,7.0,95,0.02,,,0.13,weatherlink.com 1.10,2013-10-31 13:59:00,
2013-10-31 09:14:00,61.6,60.0,29.55,SW,219,3.0,10.0,94,0.02,,,0.13,weatherlink.com 1.10,2013-10-31 14:14:00,
2013-10-31 09:29:00,61.7,60.0,29.54,SW,231,2.0,8.0,94,0.01,,,0.13,weatherlink.com 1.10,2013-10-31 14:29:00,
2013-10-31 09:44:00,61.9,60.0,29.52,SW,218,8.0,8.0,94,0.00,,,0.13,weatherlink.com 1.10,2013-10-31 14:44:00,
2013-10-31 09:59:00,62.3,61.0,29.51,SW,233,2.0,7.0,94,0.00,,,0.13,weatherlink.com 1.10,2013-10-31 14:59:00,
2013-10-31 10:14:00,62.3,61.0,29.50,SW,234,2.0,7.0,94,0.00,,,0.13,weatherlink.com 1.10,2013-10-31 15:14:00,
2013-10-31 10:29:00,62.2,61.0,29.49,WSW,252,1.0,8.0,94,0.00,,,0.13,weatherlink.com 1.10,2013-10-31 15:29:00,
2013-10-31 10:44:00,61.9,60.0,29.49,SW,227,1.0,9.0,93,0.00,,,0.13,weatherlink.com 1.10,2013-10-31 15:44:00,
2013-10-31 11:00:00,61.7,60.0,29.48,West,260,3.0,7.0,93,0.01,,,0.14,weatherlink.com 1.10,2013-10-31 16:00:00,
2013-10-31 11:15:00,61.5,60.0,29.47,WSW,238,3.0,4.0,94,0.01,,,0.14,weatherlink.com 1.10,2013-10-31 16:15:00,
2013-10-31 11:30:00,61.6,60.0,29.46,SSW,198,1.0,6.0,94,0.02,,,0.15,weatherlink.com 1.10,2013-10-31 16:30:00,
2013-10-31 11:45:00,61.6,60.0,29.45,WSW,251,1.0,6.0,94,0.02,,,0.15,weatherlink.com 1.10,2013-10-31 16:45:00,
2013-10-31 12:00:00,61.3,60.0,29.45,West,263,3.0,4.0,94,0.02,,,0.16,weatherlink.com 1.10,2013-10-31 17:00:00,
2013-10-31 12:15:00,60.8,59.0,29.44,West,265,5.0,5.0,94,0.03,,,0.17,weatherlink.com 1.10,2013-10-31 17:15:00,
2013-10-31 12:30:00,60.7,59.0,29.42,West,264,3.0,4.0,94,0.03,,,0.18,weatherlink.com 1.10,2013-10-31 17:30:00,
2013-10-31 12:45:00,60.3,59.0,29.41,WNW,286,2.0,6.0,94,0.05,,,0.20,weatherlink.com 1.10,2013-10-31 17:45:00,
2013-10-31 13:15:00,58.2,57.0,29.38,NNW,328,3.0,13.0,94,0.13,,,0.31,weatherlink.com 1.10,2013-10-31 18:15:00,
2013-10-31 13:30:00,57.3,56.0,29.38,NNW,337,9.0,11.0,94,0.19,,,0.37,weatherlink.com 1.10,2013-10-31 18:30:00,
2013-10-31 13:45:00,56.4,55.0,29.37,NW,322,7.0,13.0,94,0.22,,,0.42,weatherlink.com 1.10,2013-10-31 18:45:00,
2013-10-31 14:00:00,55.6,54.0,29.37,NNW,330,4.0,9.0,94,0.22,,,0.46,weatherlink.com 1.10,2013-10-31 19:00:00,
2013-10-31 14:16:00,55.2,54.0,29.35,NNW,329,7.0,11.0,95,0.17,,,0.49,weatherlink.com 1.10,2013-10-31 19:16:00,
2013-10-31 14:31:00,54.8,53.0,29.34,NW,315,7.0,11.0,94,0.12,,,0.49,weatherlink.com 1.10,2013-10-31 19:31:00,
2013-10-31 14:46:00,54.6,53.0,29.34,NW,317,4.0,13.0,94,0.07,,,0.49,weatherlink.com 1.10,2013-10-31 19:46:00,
2013-10-31 15:01:00,54.0,52.0,29.32,North,350,1.0,10.0,94,0.03,,,0.49,weatherlink.com 1.10,2013-10-31 20:01:00,
2013-10-31 15:16:00,53.4,52.0,29.34,NW,308,8.0,15.0,94,0.00,,,0.49,weatherlink.com 1.10,2013-10-31 20:16:00,
2013-10-31 15:31:00,53.0,51.0,29.34,NNW,329,8.0,11.0,94,0.00,,,0.49,weatherlink.com 1.10,2013-10-31 20:31:00,
2013-10-31 15:46:00,52.3,50.0,29.35,WNW,298,6.0,14.0,93,0.00,,,0.49,weatherlink.com 1.10,2013-10-31 20:46:00,
2013-10-31 16:01:00,51.7,50.0,29.35,WNW,302,4.0,14.0,92,0.00,,,0.49,weatherlink.com 1.10,2013-10-31 21:01:00,
2013-10-31 16:31:00,50.8,49.0,29.36,West,270,8.0,11.0,92,0.00,,,0.49,weatherlink.com 1.10,2013-10-31 21:31:00,
2013-10-31 16:46:00,50.3,48.0,29.36,NW,313,4.0,11.0,92,0.00,,,0.49,weatherlink.com 1.10,2013-10-31 21:46:00,
2013-10-31 17:01:00,49.5,47.0,29.38,NW,321,4.0,16.0,91,0.01,,,0.50,weatherlink.com 1.10,2013-10-31 22:01:00,
2013-10-31 17:16:00,49.0,47.0,29.38,NNW,348,6.0,14.0,91,0.01,,,0.50,weatherlink.com 1.10,2013-10-31 22:16:00,
2013-10-31 17:31:00,48.9,47.0,29.39,NW,312,3.0,18.0,92,0.02,,,0.51,weatherlink.com 1.10,2013-10-31 22:31:00,
2013-10-31 17:47:00,47.9,46.0,29.40,NW,312,5.0,15.0,92,0.04,,,0.53,weatherlink.com 1.10,2013-10-31 22:47:00,
2013-10-31 18:02:00,47.7,46.0,29.40,WNW,302,6.0,9.0,93,0.04,,,0.54,weatherlink.com 1.10,2013-10-31 23:02:00,
2013-10-31 18:17:00,47.3,45.0,29.41,NW,320,2.0,10.0,93,0.05,,,0.55,weatherlink.com 1.10,2013-10-31 23:17:00,
2013-10-31 18:32:00,46.9,45.0,29.41,NNW,335,6.0,9.0,92,0.03,,,0.55,weatherlink.com 1.10,2013-10-31 23:32:00,
2013-10-31 18:47:00,46.8,45.0,29.41,North,349,6.0,12.0,92,0.02,,,0.55,weatherlink.com 1.10,2013-10-31 23:47:00,
2013-10-31 19:02:00,46.7,45.0,29.41,NNW,328,4.0,9.0,92,0.02,,,0.56,weatherlink.com 1.10,2013-11-01 00:02:00,
2013-10-31 19:17:00,46.6,44.0,29.42,NNW,333,6.0,9.0,92,0.01,,,0.56,weatherlink.com 1.10,2013-11-01 00:17:00,
2013-10-31 19:32:00,46.3,44.0,29.43,NW,323,9.0,11.0,92,0.01,,,0.56,weatherlink.com 1.10,2013-11-01 00:32:00,
2013-10-31 19:47:00,46.1,44.0,29.43,WNW,300,7.0,14.0,91,0.01,,,0.56,weatherlink.com 1.10,2013-11-01 00:47:00,
2013-10-31 20:02:00,45.8,44.0,29.42,North,355,6.0,18.0,92,0.00,,,0.56,weatherlink.com 1.10,2013-11-01 01:02:00,
2013-10-31 20:17:00,45.5,43.0,29.41,NNW,339,6.0,13.0,91,0.00,,,0.56,weatherlink.com 1.10,2013-11-01 01:17:00,
2013-10-31 20:32:00,45.4,43.0,29.42,NW,315,5.0,13.0,91,0.00,,,0.56,weatherlink.com 1.10,2013-11-01 01:32:00,
2013-10-31 20:47:00,45.2,43.0,29.42,NW,317,7.0,14.0,91,0.00,,,0.56,weatherlink.com 1.10,2013-11-01 01:47:00,
2013-10-31 21:03:00,45.0,43.0,29.43,NNW,338,8.0,13.0,91,0.00,,,0.56,weatherlink.com 1.10,2013-11-01 02:03:00,
2013-10-31 21:18:00,45.0,43.0,29.43,NW,304,6.0,15.0,91,0.00,,,0.56,weatherlink.com 1.10,2013-11-01 02:18:00,
2013-10-31 21:33:00,45.1,43.0,29.44,West,273,6.0,14.0,92,0.00,,,0.56,weatherlink.com 1.10,2013-11-01 02:33:00,
2013-10-31 21:48:00,45.0,43.0,29.46,WNW,293,5.0,10.0,91,0.00,,,0.56,weatherlink.com 1.10,2013-11-01 02:48:00,
2013-10-31 22:03:00,44.9,43.0,29.48,NW,312,8.0,14.0,91,0.00,,,0.56,weatherlink.com 1.10,2013-11-01 03:03:00,
2013-10-31 22:18:00,44.8,42.0,29.48,West,273,3.0,13.0,90,0.00,,,0.56,weatherlink.com 1.10,2013-11-01 03:18:00,
2013-10-31 22:33:00,44.7,42.0,29.48,NW,311,6.0,16.0,90,0.00,,,0.56,weatherlink.com 1.10,2013-11-01 03:33:00,
2013-10-31 22:48:00,44.9,43.0,29.49,West,265,5.0,12.0,91,0.00,,,0.56,weatherlink.com 1.10,2013-11-01 03:48:00,
2013-10-31 23:03:00,45.1,43.0,29.50,West,273,3.0,15.0,91,0.00,,,0.00,weatherlink.com 1.10,2013-11-01 04:03:00,
2013-10-31 23:18:00,45.2,43.0,29.50,West,278,4.0,13.0,91,0.00,,,0.00,weatherlink.com 1.10,2013-11-01 04:18:00,
2013-10-31 23:33:00,45.1,43.0,29.50,West,273,4.0,11.0,91,0.00,,,0.00,weatherlink.com 1.10,2013-11-01 04:33:00,
2013-10-31 23:48:00,44.9,43.0,29.50,NW,314,4.0,10.0,92,0.00,,,0.00,weatherlink.com 1.10,2013-11-01 04:48:00,